Time;durP1;ratioP1;P1;durP2;ratioP2;P2;SDS_P1;SDS_P2;PMS_P1;PMS_P2;Temp;Humidity;BMP_temperature;BMP_pressure;BME280_temperature;BME280_humidity;BME280_pressure;Samples;Min_cycle;Max_cycle;Signal;HPM_P1;HPM_P2
2022/04/27 00:00:30;;;;;;;59.85;36.25;;;7.50;99.90;;;;;;4992913;28;20543;-58
2022/04/27 00:02:56;;;;;;;56.72;35.35;;;7.40;99.90;;;;;;4993434;28;20172;-59
2022/04/27 00:05:22;;;;;;;54.53;34.55;;;7.40;99.90;;;;;;4993245;28;20054;-56
2022/04/27 00:07:48;;;;;;;58.63;35.22;;;7.40;99.90;;;;;;4993120;28;20026;-55
2022/04/27 00:10:14;;;;;;;54.55;33.28;;;7.30;99.90;;;;;;4993230;28;20504;-56
2022/04/27 00:12:40;;;;;;;56.45;34.50;;;7.30;99.90;;;;;;4991643;28;20014;-55
2022/04/27 00:15:07;;;;;;;55.05;35.40;;;7.20;99.90;;;;;;4992372;28;20045;-53
2022/04/27 00:17:33;;;;;;;59.78;37.13;;;7.20;99.90;;;;;;4991760;28;20504;-53
2022/04/27 00:19:58;;;;;;;60.83;35.25;;;7.20;99.90;;;;;;4995286;28;20030;-48
2022/04/27 00:22:25;;;;;;;71.60;40.25;;;7.20;99.90;;;;;;4991897;28;20026;-56
2022/04/27 00:24:50;;;;;;;64.22;36.92;;;7.20;99.90;;;;;;4959309;28;20112;-55
2022/04/27 00:27:16;;;;;;;64.85;36.72;;;7.10;99.90;;;;;;4992039;28;20042;-57
2022/04/27 00:29:42;;;;;;;56.30;35.60;;;7.10;99.90;;;;;;4990660;28;20033;-57
2022/04/27 00:32:08;;;;;;;62.72;33.92;;;7.10;99.90;;;;;;4992210;28;20023;-53
2022/04/27 00:34:33;;;;;;;56.85;35.80;;;7.00;99.90;;;;;;4989682;28;20042;-53
2022/04/27 00:36:59;;;;;;;58.10;36.28;;;7.00;99.90;;;;;;4984039;28;20034;-56
2022/04/27 00:39:24;;;;;;;61.20;36.30;;;7.00;99.90;;;;;;4981365;28;20457;-58
2022/04/27 00:41:59;;;;;;;62.30;37.10;;;7.00;99.90;;;;;;4986647;28;20062;-58
2022/04/27 00:44:32;;;;;;;63.55;37.67;;;7.00;99.90;;;;;;4991556;28;20030;-57
2022/04/27 00:46:58;;;;;;;63.38;36.05;;;7.00;99.90;;;;;;4990667;28;20117;-54
2022/04/27 00:49:27;;;;;;;63.97;37.85;;;6.90;99.90;;;;;;4984826;28;20069;-57
2022/04/27 00:51:54;;;;;;;61.90;35.78;;;6.90;99.90;;;;;;4986908;28;20080;-56
2022/04/27 00:54:22;;;;;;;58.15;36.17;;;6.90;99.90;;;;;;4990446;28;20062;-58
2022/04/27 00:56:49;;;;;;;57.95;34.55;;;6.80;99.90;;;;;;4990307;28;20138;-55
2022/04/27 00:59:15;;;;;;;61.85;35.40;;;6.80;99.90;;;;;;4981131;28;20395;-55
2022/04/27 01:01:41;;;;;;;66.43;37.13;;;6.80;99.90;;;;;;4991862;28;20041;-57
2022/04/27 01:04:07;;;;;;;63.50;35.40;;;6.70;99.90;;;;;;4990832;28;20026;-53
2022/04/27 01:06:37;;;;;;;60.53;37.42;;;6.70;99.90;;;;;;4992380;28;20480;-53
2022/04/27 01:09:03;;;;;;;57.58;34.75;;;6.70;99.90;;;;;;4991540;28;20087;-53
2022/04/27 01:11:32;;;;;;;55.15;34.63;;;6.60;99.90;;;;;;4992341;28;20034;-56
2022/04/27 01:13:57;;;;;;;56.58;35.13;;;6.60;99.90;;;;;;4989405;28;20041;-50
2022/04/27 01:16:23;;;;;;;61.45;37.03;;;6.60;99.90;;;;;;4992294;28;20038;-56
2022/04/27 01:18:50;;;;;;;57.20;33.25;;;6.60;99.90;;;;;;4990952;28;20076;-57
2022/04/27 01:21:16;;;;;;;53.13;34.22;;;6.50;99.90;;;;;;4991864;28;20027;-58
2022/04/27 01:23:42;;;;;;;55.70;32.75;;;6.50;99.90;;;;;;4992032;28;20023;-56
2022/04/27 01:26:08;;;;;;;54.25;34.55;;;6.40;99.90;;;;;;4991922;28;20033;-58
2022/04/27 01:28:35;;;;;;;53.20;33.28;;;6.40;99.90;;;;;;4990091;28;20104;-57
2022/04/27 01:31:03;;;;;;;57.60;28.80;;;6.40;99.90;;;;;;4990646;28;20044;-58
2022/04/27 01:33:35;;;;;;;175.38;29.17;;;6.40;99.90;;;;;;4990428;28;20528;-56
2022/04/27 01:36:13;;;;;;;72.47;29.27;;;6.40;99.90;;;;;;4992080;28;20026;-54
2022/04/27 01:38:43;;;;;;;41.72;27.20;;;6.30;99.90;;;;;;4986232;28;20380;-56
2022/04/27 01:41:09;;;;;;;46.95;29.50;;;6.30;99.90;;;;;;4985889;28;20373;-55
2022/04/27 01:43:36;;;;;;;48.55;27.08;;;6.30;99.90;;;;;;4979590;28;20033;-53
2022/04/27 01:46:02;;;;;;;90.50;26.27;;;6.20;99.90;;;;;;4988193;28;20041;-51
2022/04/27 01:48:28;;;;;;;55.45;26.95;;;6.20;99.90;;;;;;4990618;28;20042;-55
2022/04/27 01:50:54;;;;;;;42.75;28.08;;;6.20;99.90;;;;;;4984482;28;20026;-56
2022/04/27 01:56:04;;;;;;;65.25;37.53;;;6.40;99.90;;;;;;4992082;28;20040;-58
2022/04/27 01:58:30;;;;;;;61.28;38.67;;;6.40;99.90;;;;;;4981606;28;20102;-59
2022/04/27 02:00:57;;;;;;;64.78;37.90;;;6.60;99.90;;;;;;4990220;28;20030;-56
2022/04/27 02:03:23;;;;;;;50.13;29.98;;;6.60;99.90;;;;;;4991102;28;20031;-59
2022/04/27 02:05:49;;;;;;;61.47;26.08;;;6.70;99.90;;;;;;4993997;28;20161;-57
2022/04/27 02:08:15;;;;;;;37.03;26.10;;;6.70;99.90;;;;;;4996286;28;20030;-56
2022/04/27 02:10:41;;;;;;;32.63;24.42;;;6.60;99.90;;;;;;4992262;28;20030;-56
2022/04/27 02:13:09;;;;;;;34.60;23.50;;;6.60;99.90;;;;;;4989916;28;20097;-58
2022/04/27 02:15:35;;;;;;;39.28;25.75;;;6.60;99.90;;;;;;4991737;28;20377;-58
2022/04/27 02:18:01;;;;;;;38.65;25.65;;;6.50;99.90;;;;;;4990440;28;20033;-57
2022/04/27 02:20:28;;;;;;;34.63;24.55;;;6.50;99.90;;;;;;4991561;28;20029;-56
2022/04/27 02:22:54;;;;;;;37.42;25.20;;;6.50;99.90;;;;;;4991601;28;20026;-58
2022/04/27 02:25:20;;;;;;;32.88;24.13;;;6.50;99.90;;;;;;4991526;28;20071;-55
2022/04/27 02:27:46;;;;;;;171.20;28.55;;;6.40;99.90;;;;;;4990793;28;20091;-58
2022/04/27 02:30:12;;;;;;;262.40;31.40;;;6.40;99.90;;;;;;4990892;28;20105;-54
2022/04/27 02:32:38;;;;;;;194.18;29.95;;;6.40;99.90;;;;;;4990941;28;20388;-57
2022/04/27 02:35:06;;;;;;;145.88;26.52;;;6.40;99.90;;;;;;4974395;28;20058;-56
2022/04/27 02:37:32;;;;;;;60.10;25.85;;;6.30;99.90;;;;;;4991017;28;20126;-57
2022/04/27 02:39:58;;;;;;;36.75;24.13;;;6.30;99.90;;;;;;4988655;28;20109;-56
2022/04/27 02:42:24;;;;;;;36.53;26.20;;;6.30;99.90;;;;;;4990091;28;20108;-57
2022/04/27 02:44:49;;;;;;;39.72;27.20;;;6.30;99.90;;;;;;4988780;28;20539;-58
2022/04/27 02:47:16;;;;;;;38.30;25.40;;;6.30;99.90;;;;;;4998790;28;20027;-59
2022/04/27 02:52:25;;;;;;;;;;;6.20;99.90;;;;;;4987767;28;20042;-56
2022/04/27 02:54:51;;;;;;;43.38;26.73;;;6.20;99.90;;;;;;4988884;28;19918;-59
2022/04/27 02:57:17;;;;;;;46.70;28.70;;;6.30;99.90;;;;;;4988799;28;20022;-57
2022/04/27 02:59:43;;;;;;;46.45;30.17;;;6.30;99.90;;;;;;4990849;28;20373;-57
2022/04/27 03:02:09;;;;;;;45.17;29.40;;;6.30;99.90;;;;;;4988026;28;20031;-49
2022/04/27 03:04:35;;;;;;;39.42;26.80;;;6.30;99.90;;;;;;4988570;28;20550;-57
2022/04/27 03:07:01;;;;;;;48.13;27.83;;;6.30;99.90;;;;;;4990656;28;20027;-57
2022/04/27 03:09:27;;;;;;;46.60;29.20;;;6.20;99.90;;;;;;4989432;28;21764;-59
2022/04/27 03:11:52;;;;;;;48.63;28.50;;;6.30;99.90;;;;;;4984895;28;20030;-55
2022/04/27 03:14:19;;;;;;;42.35;28.23;;;6.20;99.90;;;;;;4990350;28;20033;-58
2022/04/27 03:16:45;;;;;;;41.35;28.05;;;6.30;99.90;;;;;;4990524;28;20018;-54
2022/04/27 03:19:11;;;;;;;40.65;26.30;;;6.30;99.90;;;;;;4988035;28;20029;-58
2022/04/27 03:21:37;;;;;;;40.00;27.02;;;6.40;99.90;;;;;;4989896;28;20120;-57
2022/04/27 03:24:02;;;;;;;37.63;26.63;;;6.40;99.90;;;;;;4987403;28;20085;-57
2022/04/27 03:26:28;;;;;;;42.97;27.05;;;6.40;99.90;;;;;;4987666;28;20403;-58
2022/04/27 03:28:53;;;;;;;49.17;30.20;;;6.40;99.90;;;;;;4988911;28;20034;-58
2022/04/27 03:31:19;;;;;;;52.80;32.10;;;6.40;99.90;;;;;;4988511;28;20038;-57
2022/04/27 03:33:45;;;;;;;50.80;32.33;;;6.40;99.90;;;;;;4989657;28;20027;-57
2022/04/27 03:36:11;;;;;;;59.88;34.80;;;6.50;99.90;;;;;;4981643;28;20102;-50
2022/04/27 03:38:38;;;;;;;63.63;36.75;;;6.60;99.90;;;;;;4990146;28;20031;-57
2022/04/27 03:41:04;;;;;;;64.57;37.50;;;6.60;99.90;;;;;;4982551;28;20033;-56
2022/04/27 03:43:29;;;;;;;58.22;37.40;;;6.60;99.90;;;;;;4987914;28;20169;-56
2022/04/27 03:45:55;;;;;;;73.78;37.60;;;6.60;99.90;;;;;;4996495;28;20109;-56
2022/04/27 03:48:20;;;;;;;76.55;39.45;;;6.70;99.90;;;;;;4990805;28;20101;-56
2022/04/27 03:50:46;;;;;;;59.15;34.20;;;6.60;99.90;;;;;;4989685;28;20034;-57
2022/04/27 03:53:11;;;;;;;54.08;32.20;;;6.60;99.90;;;;;;4980422;28;20069;-57
2022/04/27 03:55:37;;;;;;;49.05;30.40;;;6.60;99.90;;;;;;4989846;28;20046;-58
2022/04/27 03:58:03;;;;;;;43.85;29.70;;;6.50;99.90;;;;;;4982587;28;20145;-58
2022/04/27 04:00:30;;;;;;;47.63;29.92;;;6.50;99.90;;;;;;4980492;28;20042;-58
2022/04/27 04:02:55;;;;;;;44.13;27.38;;;6.40;99.90;;;;;;4988205;28;20027;-57
2022/04/27 04:05:22;;;;;;;42.05;26.77;;;6.40;99.90;;;;;;4988567;28;20428;-57
2022/04/27 04:07:47;;;;;;;33.92;25.27;;;6.30;99.90;;;;;;4971952;28;20054;-57
2022/04/27 04:10:13;;;;;;;46.28;28.77;;;6.30;99.90;;;;;;4988364;28;20019;-56
2022/04/27 04:12:38;;;;;;;39.65;28.30;;;6.20;99.90;;;;;;4980945;28;20033;-55
2022/04/27 04:15:04;;;;;;;43.50;28.38;;;6.20;99.90;;;;;;4990141;28;20042;-57
2022/04/27 04:17:30;;;;;;;52.38;30.98;;;6.20;99.90;;;;;;4989819;28;20018;-56
2022/04/27 04:19:55;;;;;;;55.08;32.33;;;6.10;99.90;;;;;;4990088;28;20431;-57
2022/04/27 04:22:21;;;;;;;57.83;34.85;;;6.10;99.90;;;;;;4990131;28;20038;-58
2022/04/27 04:30:15;;;;;;;62.28;33.13;;;6.30;99.90;;;;;;4976591;28;19917;-51
2022/04/27 04:32:41;;;;;;;66.30;35.10;;;6.40;99.90;;;;;;4988202;28;20034;-57
2022/04/27 04:35:07;;;;;;;61.10;34.97;;;6.40;99.90;;;;;;4986160;28;20650;-56
2022/04/27 04:37:33;;;;;;;59.08;34.67;;;6.50;99.90;;;;;;4990590;28;20577;-57
2022/04/27 04:39:59;;;;;;;74.32;34.78;;;6.50;99.90;;;;;;4992776;28;20073;-57
2022/04/27 04:42:24;;;;;;;49.42;33.92;;;6.60;99.90;;;;;;4992084;28;20026;-57
2022/04/27 04:44:50;;;;;;;48.88;30.33;;;6.70;99.90;;;;;;4987645;28;20059;-59
2022/04/27 04:47:15;;;;;;;45.95;29.85;;;6.80;99.90;;;;;;4992487;28;20038;-57
2022/04/27 04:49:41;;;;;;;51.17;31.20;;;6.90;99.90;;;;;;4990082;28;20583;-55
2022/04/27 04:52:07;;;;;;;48.10;29.73;;;6.90;99.90;;;;;;4993062;28;20530;-57
2022/04/27 04:54:34;;;;;;;46.10;27.75;;;7.00;99.90;;;;;;4995798;28;20377;-53
2022/04/27 04:56:59;;;;;;;49.10;27.13;;;7.00;99.90;;;;;;4992643;28;20030;-59
2022/04/27 04:59:25;;;;;;;42.13;27.23;;;7.10;99.90;;;;;;4990141;28;20018;-57
2022/04/27 05:01:50;;;;;;;36.35;27.00;;;7.20;99.90;;;;;;4986732;28;20026;-58
2022/04/27 05:04:16;;;;;;;37.30;25.23;;;7.30;99.90;;;;;;4991220;28;20391;-58
2022/04/27 05:06:44;;;;;;;34.38;23.30;;;7.40;99.90;;;;;;4975302;28;20171;-49
2022/04/27 05:09:09;;;;;;;33.70;23.52;;;7.50;99.90;;;;;;4991987;28;20495;-58
2022/04/27 05:11:35;;;;;;;32.72;22.00;;;7.70;99.90;;;;;;4990220;28;20160;-58
2022/04/27 05:14:01;;;;;;;30.20;19.25;;;7.80;99.90;;;;;;4991492;28;20076;-56
2022/04/27 05:16:27;;;;;;;29.30;20.63;;;7.90;99.90;;;;;;4991693;28;20380;-60
2022/04/27 05:18:53;;;;;;;25.27;19.27;;;8.00;99.90;;;;;;4990518;28;20475;-56
2022/04/27 05:21:18;;;;;;;27.15;18.35;;;8.10;99.90;;;;;;4988407;28;20022;-58
2022/04/27 05:23:44;;;;;;;22.95;18.42;;;8.20;99.90;;;;;;4990048;28;20038;-59
2022/04/27 05:26:11;;;;;;;26.50;18.50;;;8.20;99.90;;;;;;4990072;28;20042;-58
2022/04/27 05:34:05;;;;;;;22.63;16.05;;;8.20;99.90;;;;;;4989946;28;20404;-56
2022/04/27 05:36:31;;;;;;;21.40;17.10;;;8.10;99.90;;;;;;4990354;28;20027;-60
2022/04/27 05:38:56;;;;;;;21.70;15.82;;;8.00;99.90;;;;;;4989080;28;20037;-60
2022/04/27 05:41:22;;;;;;;28.02;17.23;;;8.10;99.90;;;;;;4992139;28;20650;-56
2022/04/27 05:43:47;;;;;;;22.92;15.70;;;8.20;99.90;;;;;;4990555;28;20042;-54
2022/04/27 05:46:13;;;;;;;21.05;15.35;;;8.30;99.90;;;;;;4990695;28;20027;-57
2022/04/27 05:48:38;;;;;;;21.20;15.95;;;8.50;99.90;;;;;;4988295;28;20431;-58
2022/04/27 05:51:05;;;;;;;19.17;15.23;;;8.60;99.90;;;;;;4984007;28;20045;-56
2022/04/27 05:53:31;;;;;;;24.70;16.13;;;8.80;99.90;;;;;;4989188;28;20508;-54
2022/04/27 05:55:56;;;;;;;22.70;15.07;;;8.90;99.90;;;;;;4990774;28;20114;-55
2022/04/27 05:58:22;;;;;;;18.65;13.82;;;8.90;99.90;;;;;;4991313;28;20030;-56
2022/04/27 06:00:49;;;;;;;21.17;15.75;;;8.90;99.90;;;;;;4985822;28;20027;-59
2022/04/27 06:03:15;;;;;;;14.02;11.65;;;9.00;99.90;;;;;;4988238;28;20026;-58
2022/04/27 06:05:40;;;;;;;21.77;14.20;;;9.10;99.90;;;;;;4985682;28;20030;-58
2022/04/27 06:08:07;;;;;;;18.63;14.57;;;9.20;99.90;;;;;;4971949;28;20042;-56
2022/04/27 06:10:32;;;;;;;19.75;14.60;;;9.10;99.90;;;;;;4990527;28;20114;-59
2022/04/27 06:12:58;;;;;;;23.73;15.68;;;9.30;99.90;;;;;;4991046;28;20152;-58
2022/04/27 06:15:24;;;;;;;22.73;14.90;;;9.20;99.90;;;;;;4988180;28;20100;-57
2022/04/27 06:17:50;;;;;;;20.92;14.93;;;9.40;99.90;;;;;;4991161;28;20038;-58
2022/04/27 06:20:15;;;;;;;21.75;14.23;;;9.50;99.90;;;;;;4991116;28;20040;-54
2022/04/27 06:22:41;;;;;;;19.13;15.15;;;9.70;99.90;;;;;;4990651;28;20038;-58
2022/04/27 06:25:07;;;;;;;21.88;14.95;;;9.80;99.90;;;;;;4990769;28;20061;-56
2022/04/27 06:27:32;;;;;;;17.92;14.25;;;9.90;99.90;;;;;;4989098;28;20514;-58
2022/04/27 06:29:58;;;;;;;23.70;14.50;;;10.10;99.90;;;;;;4991134;28;20038;-56
2022/04/27 06:32:24;;;;;;;18.77;14.00;;;10.30;99.90;;;;;;4991652;28;20034;-58
2022/04/27 06:34:49;;;;;;;19.73;13.75;;;10.50;99.90;;;;;;4989190;28;20137;-57
2022/04/27 06:37:15;;;;;;;16.80;12.68;;;10.90;99.90;;;;;;4990782;28;20033;-58
2022/04/27 06:39:43;;;;;;;22.23;13.63;;;11.30;99.90;;;;;;4989586;28;20030;-49
2022/04/27 06:42:08;;;;;;;18.17;14.38;;;11.90;99.90;;;;;;4990911;28;20054;-57
2022/04/27 06:44:34;;;;;;;17.98;11.10;;;12.40;99.90;;;;;;4985803;28;20066;-60
2022/04/27 06:47:00;;;;;;;16.25;9.90;;;13.90;99.90;;;;;;4990925;28;20030;-56
2022/04/27 06:49:25;;;;;;;18.70;10.60;;;15.40;99.90;;;;;;4988701;28;20406;-58
2022/04/27 06:51:51;;;;;;;14.55;9.65;;;16.60;99.10;;;;;;4991000;28;20038;-60
2022/04/27 06:54:16;;;;;;;12.23;9.02;;;16.50;99.20;;;;;;4989906;28;20061;-60
2022/04/27 06:56:42;;;;;;;12.77;8.75;;;16.80;99.50;;;;;;4990686;28;20105;-60
2022/04/27 06:59:08;;;;;;;13.75;9.93;;;18.00;96.60;;;;;;4986966;28;20395;-59
2022/04/27 07:01:33;;;;;;;12.30;9.52;;;18.30;93.00;;;;;;4982688;28;20026;-60
2022/04/27 07:04:06;;;;;;;15.18;8.50;;;18.20;94.40;;;;;;4989305;28;20053;-60
2022/04/27 07:06:32;;;;;;;12.55;6.93;;;18.90;90.80;;;;;;4971381;28;20054;-60
2022/04/27 07:08:58;;;;;;;13.10;6.63;;;18.90;89.80;;;;;;4986569;28;20073;-60
2022/04/27 07:11:23;;;;;;;13.25;6.70;;;18.90;87.40;;;;;;4989095;28;20034;-59
2022/04/27 07:13:49;;;;;;;16.45;7.28;;;19.60;79.60;;;;;;4990162;28;20646;-59
2022/04/27 07:16:14;;;;;;;11.20;7.78;;;19.50;84.00;;;;;;4989746;28;20072;-53
2022/04/27 07:18:40;;;;;;;12.05;6.65;;;19.80;82.00;;;;;;4987581;28;20076;-60
2022/04/27 07:21:08;;;;;;;8.88;6.45;;;19.60;84.00;;;;;;4983157;28;20030;-58
2022/04/27 07:23:34;;;;;;;10.57;7.28;;;20.40;73.10;;;;;;4987043;28;20022;-57
2022/04/27 07:25:59;;;;;;;10.38;6.35;;;19.70;77.80;;;;;;4977852;28;20162;-58
2022/04/27 07:28:25;;;;;;;11.52;7.30;;;20.40;74.60;;;;;;4977657;28;20058;-58
2022/04/27 07:30:50;;;;;;;15.15;7.05;;;20.70;77.80;;;;;;4978525;28;20041;-58
2022/04/27 07:33:16;;;;;;;8.50;6.10;;;20.60;78.80;;;;;;4982600;28;20661;-59
2022/04/27 07:35:41;;;;;;;12.05;5.93;;;20.90;75.20;;;;;;4983216;28;20708;-60
2022/04/27 07:38:07;;;;;;;12.23;6.93;;;21.80;72.20;;;;;;4986909;28;20542;-61
2022/04/27 07:40:33;;;;;;;10.65;6.75;;;21.30;66.30;;;;;;4987875;28;20109;-59
2022/04/27 07:42:59;;;;;;;10.38;6.13;;;20.20;72.50;;;;;;4989126;28;20026;-60
2022/04/27 07:45:25;;;;;;;8.30;5.88;;;19.30;75.70;;;;;;4987008;28;20158;-57
2022/04/27 07:47:51;;;;;;;10.65;6.22;;;19.70;74.00;;;;;;4985105;28;21374;-53
2022/04/27 07:50:18;;;;;;;8.18;5.45;;;20.40;70.80;;;;;;4986827;28;20034;-53
2022/04/27 07:52:44;;;;;;;11.65;5.85;;;20.50;72.70;;;;;;4987486;28;20038;-58
2022/04/27 07:55:10;;;;;;;12.68;5.65;;;20.30;71.10;;;;;;4990070;28;20086;-59
2022/04/27 07:57:37;;;;;;;9.02;5.68;;;20.60;71.40;;;;;;4988839;28;20022;-58
2022/04/27 08:00:09;;;;;;;10.48;5.60;;;20.80;68.40;;;;;;4988390;28;20447;-61
2022/04/27 08:02:36;;;;;;;13.43;5.03;;;21.30;68.70;;;;;;4980985;28;20053;-58
2022/04/27 08:05:02;;;;;;;10.15;5.30;;;22.40;64.80;;;;;;4982220;28;20400;-59
2022/04/27 08:07:41;;;;;;;10.20;5.00;;;22.80;63.20;;;;;;4970300;28;20057;-59
2022/04/27 08:10:09;;;;;;;13.52;5.28;;;22.30;62.80;;;;;;4986074;28;20026;-57
2022/04/27 08:12:34;;;;;;;9.60;5.35;;;22.00;63.80;;;;;;4992805;28;20034;-55
2022/04/27 08:15:00;;;;;;;9.85;4.80;;;21.80;65.00;;;;;;4992853;28;20085;-59
2022/04/27 08:17:25;;;;;;;10.00;4.95;;;21.60;66.20;;;;;;4993286;28;20047;-59
2022/04/27 08:21:13;;;;;;;10.13;5.10;;;22.00;70.60;;;;;;4993344;28;20460;-58
2022/04/27 08:22:36;;;;;;;11.45;5.13;;;22.50;64.40;;;;;;4984156;28;20027;-56
2022/04/27 08:25:02;;;;;;;10.65;5.00;;;22.70;64.10;;;;;;4991508;28;20037;-58
2022/04/27 08:27:27;;;;;;;6.55;4.65;;;22.30;64.50;;;;;;4991197;28;20034;-59
2022/04/27 08:29:53;;;;;;;11.13;5.35;;;22.20;64.20;;;;;;4991692;28;20042;-59
2022/04/27 08:32:18;;;;;;;7.88;5.18;;;22.50;64.50;;;;;;4983412;28;20041;-58
2022/04/27 08:34:44;;;;;;;14.30;5.75;;;22.60;61.40;;;;;;4982625;28;20447;-59
2022/04/27 08:37:09;;;;;;;6.45;4.65;;;22.20;60.80;;;;;;4979400;28;20675;-55
2022/04/27 08:39:35;;;;;;;8.60;5.05;;;22.30;64.60;;;;;;5000271;28;20074;-54
2022/04/27 08:42:00;;;;;;;9.35;5.22;;;22.70;61.50;;;;;;4982303;28;20503;-55
2022/04/27 08:44:26;;;;;;;8.77;4.82;;;23.20;61.50;;;;;;4991658;28;20113;-57
2022/04/27 08:46:53;;;;;;;8.85;4.72;;;23.10;60.20;;;;;;4993060;28;20027;-58
2022/04/27 08:49:18;;;;;;;8.15;5.30;;;23.30;61.00;;;;;;4990769;28;20022;-57
2022/04/27 08:51:44;;;;;;;9.77;5.22;;;23.10;61.80;;;;;;4993599;28;20790;-57
2022/04/27 08:54:10;;;;;;;12.82;5.07;;;22.00;61.20;;;;;;4989901;28;20038;-57
2022/04/27 08:56:35;;;;;;;8.77;4.32;;;22.20;61.70;;;;;;4990228;28;20062;-56
2022/04/27 08:59:02;;;;;;;8.23;4.85;;;22.80;64.30;;;;;;4992321;28;20038;-57
2022/04/27 09:01:28;;;;;;;13.05;5.03;;;23.30;61.10;;;;;;4976341;28;20034;-58
2022/04/27 09:04:12;;;;;;;10.68;5.30;;;22.80;61.60;;;;;;4992176;28;20041;-57
2022/04/27 09:06:41;;;;;;;14.77;6.28;;;22.80;62.20;;;;;;4979620;28;20030;-58
2022/04/27 09:09:10;;;;;;;11.10;5.10;;;22.30;60.10;;;;;;4991836;28;20129;-58
2022/04/27 09:11:37;;;;;;;7.63;5.15;;;21.80;61.30;;;;;;4990092;28;20030;-58
2022/04/27 09:14:06;;;;;;;7.97;5.80;;;22.40;61.40;;;;;;4991293;28;20037;-58
2022/04/27 09:22:11;;;;;;;11.55;5.85;;;21.80;60.20;;;;;;4986340;28;20045;-58
2022/04/27 09:24:48;;;;;;;10.32;6.32;;;21.80;62.40;;;;;;4985137;28;20464;-57
2022/04/27 09:27:18;;;;;;;8.50;6.00;;;22.50;62.10;;;;;;4991545;28;20093;-58
2022/04/27 09:29:54;;;;;;;9.60;4.85;;;22.50;60.30;;;;;;4991986;28;20756;-58
2022/04/27 09:32:20;;;;;;;14.73;5.93;;;22.70;63.00;;;;;;4978794;28;20460;-54
2022/04/27 09:34:47;;;;;;;8.38;5.60;;;22.10;60.50;;;;;;4982549;28;20039;-56
2022/04/27 09:37:19;;;;;;;9.88;5.18;;;22.90;62.00;;;;;;4988603;28;20042;-59
2022/04/27 09:39:58;;;;;;;9.80;5.75;;;23.10;62.00;;;;;;4989684;28;20492;-60
2022/04/27 09:42:30;;;;;;;8.32;5.63;;;23.30;59.10;;;;;;4988875;28;20030;-61
2022/04/27 09:45:12;;;;;;;7.50;5.55;;;23.60;61.40;;;;;;4989841;28;20037;-59
2022/04/27 09:47:53;;;;;;;11.03;6.63;;;23.20;60.40;;;;;;4989141;28;20057;-62
2022/04/27 09:50:19;;;;;;;12.30;5.57;;;23.80;59.20;;;;;;4987831;28;20027;-58
2022/04/27 09:52:45;;;;;;;10.93;5.85;;;22.90;57.80;;;;;;4989797;28;20050;-58
2022/04/27 09:55:11;;;;;;;12.00;6.15;;;22.50;61.90;;;;;;4987340;28;20388;-61
2022/04/27 09:57:38;;;;;;;10.43;6.72;;;22.20;64.80;;;;;;4989350;28;20033;-61
2022/04/27 10:00:04;;;;;;;10.00;5.78;;;21.50;62.60;;;;;;4990186;28;20027;-61
2022/04/27 10:02:31;;;;;;;11.82;7.10;;;20.50;63.80;;;;;;4989619;28;20070;-58
2022/04/27 10:04:58;;;;;;;12.30;6.50;;;19.60;69.40;;;;;;4988735;28;20034;-60
2022/04/27 10:07:25;;;;;;;13.27;7.13;;;19.40;68.60;;;;;;4973800;28;20145;-59
2022/04/27 10:09:51;;;;;;;12.70;7.18;;;19.30;67.10;;;;;;4991858;28;20049;-56
2022/04/27 10:12:17;;;;;;;8.90;6.78;;;19.50;68.50;;;;;;4992315;28;20037;-60
2022/04/27 10:14:43;;;;;;;14.65;6.97;;;19.50;65.90;;;;;;5002515;28;20099;-61
2022/04/27 10:17:12;;;;;;;12.95;7.30;;;19.50;68.90;;;;;;4994041;28;20026;-57
2022/04/27 10:19:49;;;;;;;10.38;8.25;;;19.40;66.50;;;;;;4987769;28;20026;-57
2022/04/27 10:22:32;;;;;;;12.05;7.70;;;19.90;67.80;;;;;;4991077;28;20038;-52
2022/04/27 10:25:06;;;;;;;13.55;8.10;;;19.40;67.20;;;;;;4998534;28;20030;-60
2022/04/27 10:27:40;;;;;;;8.00;7.00;;;19.80;65.20;;;;;;4995271;28;20068;-56
2022/04/27 10:30:12;;;;;;;16.27;7.70;;;19.80;64.20;;;;;;4999431;28;20077;-59
2022/04/27 10:32:43;;;;;;;11.85;7.90;;;19.80;70.60;;;;;;4989551;28;20034;-61
2022/04/27 10:35:12;;;;;;;15.48;7.80;;;19.80;68.80;;;;;;4990961;28;20403;-60
2022/04/27 10:37:47;;;;;;;10.50;7.75;;;19.90;65.50;;;;;;4986145;28;20059;-60
2022/04/27 10:40:42;;;;;;;12.85;7.22;;;20.60;65.20;;;;;;4990315;28;20053;-54
2022/04/27 10:43:08;;;;;;;10.73;7.13;;;20.20;62.80;;;;;;4989017;28;20065;-59
2022/04/27 10:45:44;;;;;;;8.98;7.22;;;19.60;66.90;;;;;;4988606;28;20030;-59
2022/04/27 10:48:37;;;;;;;9.98;7.10;;;19.60;65.70;;;;;;4985067;28;20499;-55
2022/04/27 10:51:07;;;;;;;10.32;6.80;;;19.20;69.00;;;;;;4989216;28;20030;-59
2022/04/27 10:53:43;;;;;;;12.55;8.25;;;19.20;68.70;;;;;;4989658;28;20030;-52
2022/04/27 10:56:23;;;;;;;12.27;7.65;;;18.90;67.00;;;;;;4985879;28;20098;-54
2022/04/27 10:58:48;;;;;;;9.98;7.18;;;18.70;67.40;;;;;;4985337;28;20396;-55
2022/04/27 11:01:18;;;;;;;10.32;8.05;;;18.40;68.60;;;;;;4988459;28;20030;-58
2022/04/27 11:03:52;;;;;;;10.85;8.82;;;18.30;67.70;;;;;;4989138;28;20022;-58
2022/04/27 11:06:19;;;;;;;14.48;8.23;;;18.60;69.50;;;;;;4987874;28;20120;-56
2022/04/27 11:08:47;;;;;;;11.82;7.63;;;18.80;69.30;;;;;;4969640;28;20050;-58
2022/04/27 11:11:16;;;;;;;11.07;7.30;;;19.20;67.70;;;;;;4987285;28;20022;-56
2022/04/27 11:13:42;;;;;;;11.05;7.95;;;19.40;64.60;;;;;;4989896;28;20060;-58
2022/04/27 11:16:13;;;;;;;12.30;7.07;;;19.50;65.20;;;;;;4987196;28;20799;-59
2022/04/27 11:18:51;;;;;;;12.63;7.38;;;20.10;65.90;;;;;;4988727;28;20045;-60
2022/04/27 11:21:21;;;;;;;9.77;6.15;;;20.10;67.60;;;;;;4988674;28;20026;-57
2022/04/27 11:23:47;;;;;;;10.35;6.07;;;19.70;65.50;;;;;;4986934;28;20037;-54
2022/04/27 11:26:15;;;;;;;8.18;5.93;;;19.60;68.60;;;;;;4988809;28;20042;-57
2022/04/27 11:28:45;;;;;;;10.35;5.82;;;19.40;67.50;;;;;;4986706;28;21219;-59
2022/04/27 11:31:12;;;;;;;11.65;5.47;;;19.50;67.80;;;;;;4987679;28;20661;-60
2022/04/27 11:33:41;;;;;;;12.63;6.70;;;19.30;70.00;;;;;;4982934;28;20172;-57
2022/04/27 11:36:23;;;;;;;9.95;5.65;;;19.40;67.60;;;;;;4985995;28;20070;-58
2022/04/27 11:38:50;;;;;;;9.13;6.10;;;19.40;67.00;;;;;;4986586;28;20035;-57
2022/04/27 11:41:18;;;;;;;7.70;5.57;;;18.70;67.60;;;;;;4985690;28;20027;-59
2022/04/27 11:43:44;;;;;;;11.63;6.38;;;18.80;67.30;;;;;;4987887;28;20694;-58
2022/04/27 11:46:10;;;;;;;11.57;7.03;;;18.80;66.40;;;;;;4991017;28;20539;-61
2022/04/27 11:48:36;;;;;;;10.05;6.18;;;18.90;66.30;;;;;;4988682;28;20026;-54
2022/04/27 11:51:03;;;;;;;13.20;7.68;;;18.80;65.80;;;;;;4989339;28;20034;-58
2022/04/27 11:53:29;;;;;;;10.25;6.32;;;18.70;65.90;;;;;;4988914;28;20037;-59
2022/04/27 11:55:57;;;;;;;10.90;6.78;;;18.80;66.10;;;;;;4990511;28;20034;-51
2022/04/27 11:58:27;;;;;;;9.52;6.32;;;18.70;68.70;;;;;;4989149;28;20172;-56
2022/04/27 12:00:58;;;;;;;11.30;6.55;;;18.60;69.50;;;;;;4991496;28;20037;-54
2022/04/27 12:03:24;;;;;;;9.85;6.55;;;18.20;67.90;;;;;;4986402;28;20015;-57
2022/04/27 12:05:51;;;;;;;10.85;6.25;;;18.60;71.90;;;;;;4985305;28;20069;-59
2022/04/27 12:08:22;;;;;;;8.48;5.68;;;19.00;72.10;;;;;;4973023;28;20042;-53
2022/04/27 12:10:49;;;;;;;11.23;6.47;;;19.00;70.90;;;;;;4993202;28;20495;-61
2022/04/27 12:13:16;;;;;;;12.23;7.10;;;19.20;66.00;;;;;;4987253;28;20101;-57
2022/04/27 12:15:44;;;;;;;8.75;5.75;;;19.10;65.70;;;;;;4990829;28;20113;-59
2022/04/27 12:18:17;;;;;;;9.93;6.78;;;19.00;66.60;;;;;;4992063;28;20831;-59
2022/04/27 12:20:44;;;;;;;10.38;7.78;;;19.10;65.10;;;;;;4989401;28;20773;-58
2022/04/27 12:23:19;;;;;;;10.82;7.22;;;18.90;64.50;;;;;;4989595;28;20480;-58
2022/04/27 12:25:55;;;;;;;9.02;6.25;;;18.40;65.40;;;;;;4990725;28;20037;-58
2022/04/27 12:28:26;;;;;;;7.97;5.43;;;18.80;68.10;;;;;;4989933;28;20014;-59
2022/04/27 12:30:52;;;;;;;11.00;6.55;;;18.90;67.60;;;;;;4993600;28;20027;-60
2022/04/27 12:33:23;;;;;;;9.60;6.43;;;18.70;66.70;;;;;;4979180;28;20391;-58
2022/04/27 12:39:03;;;;;;;12.48;6.80;;;18.60;65.20;;;;;;4992653;28;20433;-57
2022/04/27 12:41:33;;;;;;;10.40;6.75;;;18.30;68.30;;;;;;4993548;28;20810;-59
2022/04/27 12:44:07;;;;;;;10.52;6.07;;;18.40;67.20;;;;;;4992732;28;20085;-57
2022/04/27 12:46:32;;;;;;;;;;;18.20;70.00;;;;;;4993250;28;20026;-58
2022/04/27 12:49:04;;;;;;;11.77;6.93;;;17.90;67.40;;;;;;4991675;28;19964;-59
2022/04/27 12:51:32;;;;;;;8.43;6.47;;;17.70;67.40;;;;;;5007265;28;20037;-59
2022/04/27 12:53:58;;;;;;;10.30;5.65;;;17.50;68.00;;;;;;4991985;28;20088;-58
2022/04/27 12:56:34;;;;;;;9.65;6.03;;;17.50;71.90;;;;;;4988529;28;20030;-57
2022/04/27 12:59:08;;;;;;;8.43;5.90;;;17.40;71.50;;;;;;4989828;28;20027;-58
2022/04/27 13:01:34;;;;;;;12.95;7.38;;;17.50;69.60;;;;;;4989725;28;20554;-59
2022/04/27 13:04:00;;;;;;;9.48;5.72;;;17.60;70.10;;;;;;4990648;28;20038;-59